Time;durP1;ratioP1;P1;durP2;ratioP2;P2;SDS_P1;SDS_P2;PMS_P1;PMS_P2;Temp;Humidity;BMP_temperature;BMP_pressure;BME280_temperature;BME280_humidity;BME280_pressure;Samples;Min_cycle;Max_cycle;Signal;HPM_P1;HPM_P2
2022/01/01 00:00:37;;;;;;;31.95;18.33;;;;;;;7.90;100.00;100033.00;5081846;28;20048;-79
2022/01/01 00:03:04;;;;;;;30.58;17.45;;;;;;;7.97;100.00;100056.63;5084788;28;20052;-79
2022/01/01 00:05:31;;;;;;;37.00;17.83;;;;;;;7.92;100.00;100039.13;5086994;28;20059;-79
2022/01/01 00:08:00;;;;;;;35.60;20.48;;;;;;;7.82;100.00;100033.72;5089029;28;20048;-79
2022/01/01 00:10:27;;;;;;;41.97;20.40;;;;;;;7.80;100.00;100046.56;5084014;28;20458;-79
2022/01/01 00:12:54;;;;;;;44.05;23.33;;;;;;;7.82;100.00;100049.97;5074860;28;20052;-79
2022/01/01 00:15:20;;;;;;;48.85;24.77;;;;;;;7.85;100.00;100043.44;5078858;28;20051;-79
2022/01/01 00:17:49;;;;;;;53.28;27.25;;;;;;;7.84;100.00;100060.66;5076524;28;20102;-79
2022/01/01 00:20:16;;;;;;;51.90;28.30;;;;;;;7.87;100.00;100072.03;5073184;28;20060;-79
2022/01/01 00:22:44;;;;;;;66.95;33.72;;;;;;;7.74;100.00;100064.25;5072946;28;20080;-79
2022/01/01 00:25:13;;;;;;;72.25;36.00;;;;;;;7.82;100.00;100084.31;5073984;28;20056;-79
2022/01/01 00:27:40;;;;;;;70.43;37.92;;;;;;;7.64;100.00;100067.97;5094022;28;20044;-79
2022/01/01 00:30:08;;;;;;;73.68;38.65;;;;;;;7.90;100.00;100084.44;5093404;28;20040;-77
2022/01/01 00:32:36;;;;;;;64.35;33.88;;;;;;;8.00;100.00;100087.16;5090255;28;20514;-77
2022/01/01 00:35:05;;;;;;;60.65;29.85;;;;;;;7.90;100.00;100085.31;5089669;28;20407;-77
2022/01/01 00:37:32;;;;;;;42.63;20.77;;;;;;;7.92;100.00;100071.63;5087785;28;20048;-79
2022/01/01 00:39:59;;;;;;;52.78;24.52;;;;;;;7.84;100.00;100080.44;5090129;28;20399;-79
2022/01/01 00:42:26;;;;;;;38.20;21.05;;;;;;;7.89;100.00;100085.44;5082779;28;20055;-79
2022/01/01 00:44:53;;;;;;;45.42;20.23;;;;;;;8.03;100.00;100093.13;5079201;28;20067;-79
2022/01/01 00:47:20;;;;;;;39.60;19.98;;;;;;;7.87;100.00;100091.00;5088879;28;20055;-79
2022/01/01 00:49:47;;;;;;;38.13;19.48;;;;;;;8.02;100.00;100094.09;5082433;28;20055;-78
2022/01/01 00:52:15;;;;;;;35.25;18.00;;;;;;;7.94;100.00;100099.41;5082026;28;20044;-79
2022/01/01 00:54:42;;;;;;;32.90;17.73;;;;;;;8.01;100.00;100105.09;5074263;28;20040;-79
2022/01/01 00:57:09;;;;;;;36.08;19.05;;;;;;;8.05;100.00;100095.66;5079649;28;20411;-79
2022/01/01 00:59:36;;;;;;;37.90;17.35;;;;;;;8.03;100.00;100081.44;5077392;28;20051;-79
2022/01/01 01:02:03;;;;;;;40.67;20.63;;;;;;;8.01;100.00;100094.25;5092572;28;20051;-79
2022/01/01 01:04:31;;;;;;;35.38;17.83;;;;;;;7.90;100.00;100073.63;5088183;28;20071;-79
2022/01/01 01:06:58;;;;;;;34.95;17.88;;;;;;;7.83;100.00;100067.94;5090056;28;20062;-79
2022/01/01 01:09:27;;;;;;;39.00;18.42;;;;;;;7.87;100.00;100071.19;5078754;28;20063;-79
2022/01/01 01:11:55;;;;;;;37.38;19.00;;;;;;;7.93;100.00;100081.44;5089231;28;20044;-79
2022/01/01 01:14:24;;;;;;;37.95;19.00;;;;;;;7.97;100.00;100082.88;5077216;28;20502;-79
2022/01/01 01:16:53;;;;;;;37.17;19.55;;;;;;;7.85;100.00;100065.94;5082226;28;20044;-80
2022/01/01 01:19:20;;;;;;;34.47;17.67;;;;;;;7.92;100.00;100069.78;5083308;28;20286;-79
2022/01/01 01:21:49;;;;;;;38.95;19.42;;;;;;;7.90;100.00;100084.44;5081119;28;20084;-79
2022/01/01 01:24:17;;;;;;;36.13;17.98;;;;;;;7.95;100.00;100088.44;5083207;28;20528;-79
2022/01/01 01:26:49;;;;;;;36.83;18.45;;;;;;;7.97;100.00;100091.00;5089603;28;20079;-80
2022/01/01 01:29:16;;;;;;;36.33;18.92;;;;;;;7.91;100.00;100064.50;5074555;28;20045;-79
2022/01/01 01:31:43;;;;;;;33.50;18.73;;;;;;;7.93;100.00;100076.91;5082865;28;20059;-79
2022/01/01 01:34:10;;;;;;;47.28;23.80;;;;;;;7.93;100.00;100085.03;5090157;28;20054;-77
2022/01/01 01:36:38;;;;;;;40.92;21.10;;;;;;;7.96;100.00;100083.84;5089239;28;20048;-80
2022/01/01 01:39:05;;;;;;;38.80;21.52;;;;;;;8.02;100.00;100095.97;5072889;28;20134;-80
2022/01/01 01:41:32;;;;;;;42.45;22.05;;;;;;;7.96;100.00;100073.91;5077754;28;20483;-80
2022/01/01 01:44:02;;;;;;;41.47;23.13;;;;;;;7.95;100.00;100074.88;5081432;28;20044;-80
2022/01/01 01:46:29;;;;;;;51.65;24.98;;;;;;;7.95;100.00;100076.75;5089309;28;20044;-80
2022/01/01 01:48:56;;;;;;;45.53;22.55;;;;;;;7.98;100.00;100096.25;5090002;28;20042;-79
2022/01/01 01:51:24;;;;;;;52.75;25.27;;;;;;;7.89;100.00;100082.72;5084617;28;20037;-80
2022/01/01 01:53:51;;;;;;;54.33;26.10;;;;;;;7.87;100.00;100092.84;5073400;28;20040;-79
2022/01/01 01:56:18;;;;;;;52.58;27.02;;;;;;;7.88;100.00;100087.28;5073554;28;20040;-78
2022/01/01 01:58:45;;;;;;;51.88;25.02;;;;;;;7.90;100.00;100088.03;5086475;28;20427;-79
2022/01/01 02:03:58;;;;;;;49.53;24.88;;;;;;;7.97;100.00;100097.25;5090058;28;20178;-79
2022/01/01 02:06:25;;;;;;;46.60;25.83;;;;;;;8.01;100.00;100097.84;5081823;28;20044;-79
2022/01/01 02:08:53;;;;;;;47.35;25.35;;;;;;;7.90;100.00;100084.44;5074723;28;20438;-79
2022/01/01 02:11:22;;;;;;;55.83;27.63;;;;;;;7.90;100.00;100088.03;5080305;28;20041;-79
2022/01/01 02:16:54;;;;;;;57.15;28.45;;;;;;;7.84;100.00;100085.88;5074881;28;20045;-79
2022/01/01 02:19:28;;;;;;;56.25;28.50;;;;;;;7.92;100.00;100085.16;5078673;28;20040;-79
2022/01/01 02:22:00;;;;;;;53.53;27.15;;;;;;;7.87;100.00;100087.44;5091783;28;20143;-79
2022/01/01 02:24:27;;;;;;;56.00;26.23;;;;;;;7.87;100.00;100085.56;5085534;28;20044;-79
2022/01/01 02:26:54;;;;;;;58.08;28.02;;;;;;;7.98;100.00;100111.66;5092777;28;20478;-79
2022/01/01 02:29:21;;;;;;;46.10;25.38;;;;;;;7.90;100.00;100084.44;5074492;28;20051;-80
2022/01/01 02:31:50;;;;;;;50.40;25.13;;;;;;;7.95;100.00;100104.69;5080817;28;20049;-79
2022/01/01 02:34:18;;;;;;;50.40;25.05;;;;;;;7.97;100.00;100099.97;5082529;28;20373;-79
2022/01/01 02:36:48;;;;;;;49.22;23.30;;;;;;;7.90;100.00;100087.16;5074102;28;20047;-79
2022/01/01 02:39:19;;;;;;;43.65;23.95;;;;;;;8.02;100.00;100101.38;5074032;28;20060;-79
2022/01/01 02:41:50;;;;;;;45.88;22.35;;;;;;;7.95;100.00;100091.13;5073975;28;20149;-79
2022/01/01 02:44:21;;;;;;;42.40;22.48;;;;;;;7.94;100.00;100085.88;5074337;28;20105;-79
2022/01/01 02:46:54;;;;;;;39.97;20.80;;;;;;;8.01;100.00;100099.66;5092408;28;20044;-79
2022/01/01 02:49:21;;;;;;;46.15;21.85;;;;;;;8.05;100.00;100101.09;5078170;28;20052;-80
2022/01/01 02:51:48;;;;;;;44.42;21.40;;;;;;;8.03;100.00;100092.28;5075554;28;20139;-80
2022/01/01 02:54:16;;;;;;;44.47;22.15;;;;;;;8.01;100.00;100073.47;5072896;28;20044;-80
2022/01/01 02:56:43;;;;;;;45.83;20.85;;;;;;;8.07;100.00;100089.13;5076289;28;20139;-80
2022/01/01 02:59:10;;;;;;;42.17;18.98;;;;;;;8.11;100.00;100085.13;5091724;28;20044;-80
2022/01/01 03:01:37;;;;;;;37.88;19.45;;;;;;;8.14;100.00;100084.84;5062528;28;20051;-79
2022/01/01 03:04:04;;;;;;;36.92;17.92;;;;;;;8.11;100.00;100085.13;5088286;28;20044;-79
2022/01/01 03:06:32;;;;;;;40.78;19.60;;;;;;;8.16;100.00;100087.41;5076601;28;20048;-80
2022/01/01 03:09:00;;;;;;;47.17;20.70;;;;;;;8.16;100.00;100084.69;5090898;28;20407;-79
2022/01/01 03:11:28;;;;;;;38.45;19.13;;;;;;;8.02;100.00;100067.03;5084211;28;20139;-79
2022/01/01 03:13:55;;;;;;;36.65;18.45;;;;;;;8.05;100.00;100079.44;5076332;28;20075;-80
2022/01/01 03:16:22;;;;;;;44.83;18.80;;;;;;;8.01;100.00;100078.00;5093523;28;20048;-80
2022/01/01 03:18:49;;;;;;;31.73;16.90;;;;;;;8.11;100.00;100089.66;5086395;28;20190;-80
2022/01/01 03:21:19;;;;;;;40.20;19.65;;;;;;;8.01;100.00;100080.72;5078174;28;20522;-79
2022/01/01 03:23:46;;;;;;;37.78;19.60;;;;;;;7.95;100.00;100065.91;5075203;28;20052;-80
2022/01/01 03:26:13;;;;;;;40.08;19.27;;;;;;;8.00;100.00;100073.59;5073222;28;20048;-78
2022/01/01 03:28:42;;;;;;;34.13;18.35;;;;;;;7.97;100.00;100059.34;5073324;28;20045;-79
2022/01/01 03:31:09;;;;;;;32.13;15.98;;;;;;;8.05;100.00;100072.16;5091499;28;20047;-77
2022/01/01 03:33:37;;;;;;;34.15;14.93;;;;;;;8.11;100.00;100070.72;5087457;28;20126;-78
2022/01/01 03:36:05;;;;;;;29.17;15.25;;;;;;;8.24;100.00;100079.38;5077800;28;20045;-78
2022/01/01 03:38:32;;;;;;;30.40;14.35;;;;;;;8.02;100.00;100069.72;5072837;28;20096;-78
2022/01/01 03:40:59;;;;;;;30.90;14.65;;;;;;;8.06;100.00;100075.72;5077311;28;20048;-79
2022/01/01 03:43:26;;;;;;;25.52;12.82;;;;;;;8.02;100.00;100072.44;5081559;28;20416;-78
2022/01/01 03:45:55;;;;;;;28.70;12.80;;;;;;;7.96;100.00;100067.59;5078854;28;20492;-77
2022/01/01 03:48:24;;;;;;;26.92;12.25;;;;;;;8.01;100.00;100072.59;5080845;28;20594;-78
2022/01/01 03:50:53;;;;;;;22.77;11.13;;;;;;;7.96;100.00;100073.03;5085346;28;20076;-77
2022/01/01 03:53:21;;;;;;;27.07;13.30;;;;;;;8.07;100.00;100093.66;5075400;28;20055;-78
2022/01/01 03:55:51;;;;;;;24.23;13.50;;;;;;;8.13;100.00;100085.81;5081751;28;20048;-78
2022/01/01 03:58:18;;;;;;;27.40;12.82;;;;;;;8.14;100.00;100089.38;5089955;28;20044;-78
2022/01/01 04:00:45;;;;;;;24.02;12.77;;;;;;;8.12;100.00;100072.44;5081274;28;20129;-77
2022/01/01 04:03:16;;;;;;;26.50;11.70;;;;;;;7.96;100.00;100068.47;5089354;28;20039;-78
2022/01/01 04:05:47;;;;;;;24.27;12.25;;;;;;;7.95;100.00;100072.19;5094536;28;20502;-79
2022/01/01 04:08:17;;;;;;;23.50;11.88;;;;;;;8.01;100.00;100091.53;5094764;28;20333;-79
2022/01/01 04:10:45;;;;;;;25.95;12.38;;;;;;;7.91;100.00;100075.31;5077173;28;20222;-78
2022/01/01 04:13:12;;;;;;;23.52;12.15;;;;;;;7.91;100.00;100072.63;5078362;28;20072;-80
2022/01/01 04:15:43;;;;;;;25.05;12.02;;;;;;;7.98;100.00;100085.44;5089319;28;20055;-77
2022/01/01 04:18:18;;;;;;;29.95;13.45;;;;;;;7.85;100.00;100073.19;5088580;28;20052;-80
2022/01/01 04:20:48;;;;;;;25.42;12.43;;;;;;;8.03;100.00;100092.28;5095755;28;20056;-79
2022/01/01 04:23:15;;;;;;;27.58;13.30;;;;;;;7.96;100.00;100064.91;5082425;28;20052;-78
2022/01/01 04:25:47;;;;;;;31.83;13.07;;;;;;;8.02;100.00;100088.69;5075597;28;20052;-77
2022/01/01 04:28:14;;;;;;;24.23;13.23;;;;;;;8.05;100.00;100063.19;5080208;28;20434;-80
2022/01/01 04:30:41;;;;;;;30.65;13.90;;;;;;;8.22;100.00;100066.97;5093249;28;20058;-80
2022/01/01 04:33:11;;;;;;;30.92;13.63;;;;;;;8.04;100.00;100058.75;5078867;28;20083;-80
2022/01/01 04:35:40;;;;;;;24.92;12.40;;;;;;;8.11;100.00;100062.59;5085335;28;20062;-78
2022/01/01 04:38:21;;;;;;;25.73;12.73;;;;;;;8.12;100.00;100058.88;5093312;28;20476;-79
2022/01/01 04:40:48;;;;;;;26.38;11.65;;;;;;;8.09;100.00;100043.78;5091610;28;20126;-78
2022/01/01 04:43:15;;;;;;;31.42;13.90;;;;;;;8.07;100.00;100050.34;5094939;28;20063;-78
2022/01/01 04:45:42;;;;;;;24.73;12.52;;;;;;;8.13;100.00;100041.66;5090175;28;20052;-80
2022/01/01 04:48:09;;;;;;;28.20;12.10;;;;;;;8.18;100.00;100052.88;5094735;28;20138;-79
2022/01/01 04:50:36;;;;;;;28.40;13.68;;;;;;;8.17;100.00;100039.47;5075292;28;20045;-79
2022/01/01 04:53:03;;;;;;;27.02;13.77;;;;;;;8.22;100.00;100043.47;5077864;28;20052;-80
2022/01/01 04:55:31;;;;;;;28.73;13.18;;;;;;;8.29;100.00;100055.38;5094516;28;20053;-80
2022/01/01 04:57:58;;;;;;;30.90;13.88;;;;;;;8.19;100.00;100030.22;5091196;28;20105;-80
2022/01/01 05:00:28;;;;;;;29.67;13.70;;;;;;;8.18;100.00;100057.44;5085427;28;20044;-80
2022/01/01 05:02:55;;;;;;;28.70;14.05;;;;;;;8.22;100.00;100035.34;5088923;28;20055;-78
2022/01/01 05:05:22;;;;;;;30.35;14.30;;;;;;;8.21;100.00;100046.31;5081509;28;20051;-78
2022/01/01 05:07:50;;;;;;;33.20;15.18;;;;;;;8.14;100.00;100046.91;5090862;28;20424;-78
2022/01/01 05:10:17;;;;;;;32.55;14.27;;;;;;;8.11;100.00;100040.91;5075183;28;20132;-78
2022/01/01 05:12:46;;;;;;;32.20;14.95;;;;;;;8.05;100.00;100030.69;5077814;28;20085;-78
2022/01/01 05:15:13;;;;;;;25.25;13.43;;;;;;;8.05;100.00;100057.75;5080695;28;20044;-78
2022/01/01 05:17:40;;;;;;;24.45;13.23;;;;;;;7.84;100.00;100039.84;5094119;28;20056;-78
2022/01/01 05:20:08;;;;;;;26.38;12.90;;;;;;;7.92;100.00;100056.22;5082250;28;20045;-78
2022/01/01 05:22:38;;;;;;;26.40;14.45;;;;;;;7.84;100.00;100044.41;5081755;28;20048;-80
2022/01/01 05:25:05;;;;;;;27.00;13.52;;;;;;;7.87;100.00;100055.78;5095997;28;20063;-78
2022/01/01 05:27:36;;;;;;;27.10;13.70;;;;;;;8.00;100.00;100054.66;5095549;28;20051;-78
2022/01/01 05:30:07;;;;;;;33.80;15.18;;;;;;;8.03;100.00;100074.16;5076886;28;20131;-78
2022/01/01 05:32:34;;;;;;;30.88;13.77;;;;;;;7.98;100.00;100055.66;5093598;28;20044;-78
2022/01/01 05:35:01;;;;;;;29.40;13.95;;;;;;;7.94;100.00;100059.63;5086680;28;20326;-78
2022/01/01 05:37:29;;;;;;;30.20;13.07;;;;;;;7.91;100.00;100059.09;5074634;28;20062;-78
2022/01/01 05:39:56;;;;;;;26.00;13.52;;;;;;;7.77;100.00;100065.81;5085886;28;20037;-78
2022/01/01 05:42:23;;;;;;;25.75;13.60;;;;;;;7.69;100.00;100065.66;5079577;28;20044;-78
2022/01/01 05:44:50;;;;;;;23.30;12.85;;;;;;;7.72;100.00;100078.91;5090386;28;20067;-78
2022/01/01 05:47:18;;;;;;;22.23;12.82;;;;;;;7.75;100.00;100090.31;5074232;28;20514;-78
2022/01/01 05:49:45;;;;;;;26.15;13.10;;;;;;;7.61;100.00;100083.47;5086720;28;20051;-78
2022/01/01 05:52:14;;;;;;;30.02;12.63;;;;;;;7.44;100.00;100070.69;5076629;28;20055;-78
2022/01/01 05:54:41;;;;;;;18.50;10.90;;;;;;;7.42;100.00;100084.34;5091519;28;20052;-78
2022/01/01 05:57:09;;;;;;;20.55;10.15;;;;;;;7.23;100.00;100070.81;5088942;28;20400;-78
2022/01/01 05:59:41;;;;;;;18.75;10.07;;;;;;;7.31;100.00;100098.00;5091784;28;20043;-78
2022/01/01 06:02:08;;;;;;;21.63;10.93;;;;;;;7.14;100.00;100085.19;5092296;28;20052;-78
2022/01/01 06:04:39;;;;;;;23.00;10.32;;;;;;;6.99;100.00;100084.72;5094873;28;20055;-78
2022/01/01 06:07:09;;;;;;;17.35;9.38;;;;;;;6.98;100.00;100107.34;5090125;28;20117;-78
2022/01/01 06:09:36;;;;;;;16.42;9.60;;;;;;;6.76;100.00;100090.38;5087486;28;20545;-78
2022/01/01 06:12:04;;;;;;;19.60;9.25;;;;;;;6.87;100.00;100111.84;5075113;28;20056;-78
2022/01/01 06:14:31;;;;;;;20.83;9.80;;;;;;;6.61;100.00;100089.00;5079508;28;20059;-78
2022/01/01 06:16:58;;;;;;;16.00;9.15;;;;;;;6.60;100.00;100115.19;5089508;28;20484;-78
2022/01/01 06:19:25;;;;;;;17.38;9.73;;;;;;;6.41;100.00;100093.50;5080627;28;20050;-78
2022/01/01 06:21:53;;;;;;;18.95;8.98;;;;;;;6.46;100.00;100094.81;5092173;28;20048;-78
2022/01/01 06:24:20;;;;;;;21.90;12.00;;;;;;;6.48;100.00;100102.78;5083603;28;20044;-78
2022/01/01 06:26:47;;;;;;;22.20;11.00;;;;;;;6.60;100.00;100104.38;5073110;28;20055;-78
2022/01/01 06:29:16;;;;;;;19.08;10.88;;;;;;;6.70;100.00;100112.53;5086866;28;20052;-78
2022/01/01 06:31:43;;;;;;;23.95;10.82;;;;;;;6.59;100.00;100101.81;5074340;28;20056;-78
2022/01/01 06:34:10;;;;;;;22.17;10.80;;;;;;;6.63;100.00;100109.50;5085413;28;20336;-78
2022/01/01 06:36:37;;;;;;;19.50;10.82;;;;;;;6.74;100.00;100124.75;5083763;28;20049;-78
2022/01/01 06:39:05;;;;;;;28.05;13.55;;;;;;;6.86;100.00;100123.66;5087761;28;20044;-80
2022/01/01 06:41:32;;;;;;;30.00;11.88;;;;;;;6.94;100.00;100128.41;5091104;28;20044;-78
2022/01/01 06:43:59;;;;;;;30.10;13.23;;;;;;;6.91;100.00;100134.09;5076456;28;20044;-78
2022/01/01 06:46:26;;;;;;;27.52;13.00;;;;;;;6.88;100.00;100131.63;5077358;28;20043;-78
2022/01/01 06:48:53;;;;;;;29.35;13.35;;;;;;;6.87;100.00;100129.94;5073527;28;20075;-78
2022/01/01 06:51:20;;;;;;;31.80;12.77;;;;;;;6.84;100.00;100122.94;5073695;28;20040;-78
2022/01/01 06:53:47;;;;;;;33.13;13.32;;;;;;;6.89;100.00;100139.63;5073609;28;20049;-78
2022/01/01 06:56:15;;;;;;;26.73;11.27;;;;;;;7.07;100.00;100141.66;5088729;28;20041;-78
2022/01/01 06:58:42;;;;;;;19.60;10.18;;;;;;;7.12;100.00;100135.81;5077577;28;20044;-78
2022/01/01 07:01:09;;;;;;;16.40;9.50;;;;;;;7.11;100.00;100142.25;5073622;28;20048;-78
2022/01/01 07:03:36;;;;;;;20.20;9.93;;;;;;;6.99;100.00;100134.22;5081794;28;20044;-78
2022/01/01 07:06:05;;;;;;;20.73;11.52;;;;;;;6.97;100.00;100125.41;5077726;28;20041;-78
2022/01/01 07:08:32;;;;;;;26.83;11.43;;;;;;;7.06;100.00;100145.34;5074295;28;20048;-78
2022/01/01 07:10:59;;;;;;;32.08;14.57;;;;;;;6.99;100.00;100136.94;5076090;28;20040;-78
2022/01/01 07:13:28;;;;;;;33.95;14.90;;;;;;;7.05;100.00;100139.09;5086272;28;20221;-78
2022/01/01 07:15:55;;;;;;;36.42;16.13;;;;;;;6.98;100.00;100121.69;5078335;28;20051;-78
2022/01/01 07:18:21;;;;;;;37.35;15.88;;;;;;;7.02;100.00;100138.53;5080102;28;20043;-78
2022/01/01 07:20:49;;;;;;;44.53;19.73;;;;;;;7.12;100.00;100135.81;5081110;28;20504;-78
2022/01/01 07:23:15;;;;;;;39.58;19.70;;;;;;;7.06;100.00;100132.69;5077877;28;20078;-78
2022/01/01 07:25:42;;;;;;;44.88;20.25;;;;;;;6.99;100.00;100120.72;5078830;28;20605;-78
2022/01/01 07:28:14;;;;;;;46.28;20.08;;;;;;;7.07;100.00;100122.72;5075711;28;20407;-78
2022/01/01 07:30:44;;;;;;;41.30;20.00;;;;;;;7.08;100.00;100125.28;5085977;28;20052;-78
2022/01/01 07:33:12;;;;;;;40.50;18.65;;;;;;;7.20;100.00;100131.44;5074692;28;20094;-78
2022/01/01 07:35:43;;;;;;;41.22;19.27;;;;;;;7.28;100.00;100121.78;5075782;28;20488;-78
2022/01/01 07:38:11;;;;;;;40.17;18.42;;;;;;;7.20;100.00;100120.63;5082146;28;20052;-78
2022/01/01 07:40:41;;;;;;;36.38;17.90;;;;;;;7.14;100.00;100115.78;5074400;28;20053;-78
2022/01/01 07:43:12;;;;;;;40.03;17.48;;;;;;;7.14;100.00;100114.94;5076247;28;20071;-78
2022/01/01 07:45:42;;;;;;;33.47;16.65;;;;;;;7.16;100.00;100102.94;5085363;28;20050;-78
2022/01/01 07:48:10;;;;;;;31.00;14.63;;;;;;;7.09;100.00;100108.09;5083816;28;20091;-78
2022/01/01 07:50:38;;;;;;;27.48;13.98;;;;;;;7.18;100.00;100108.22;5073312;28;20036;-78
2022/01/01 07:53:05;;;;;;;28.30;13.75;;;;;;;7.29;100.00;100127.03;5086897;28;20040;-80
2022/01/01 07:55:32;;;;;;;26.40;14.40;;;;;;;7.14;100.00;100112.22;5078930;28;20060;-78
2022/01/01 07:57:59;;;;;;;32.13;14.13;;;;;;;7.23;100.00;100133.84;5072919;28;20051;-78
2022/01/01 08:00:26;;;;;;;24.17;14.85;;;;;;;7.19;100.00;100137.00;5075494;28;20040;-78
2022/01/01 08:02:58;;;;;;;27.17;13.50;;;;;;;7.16;100.00;100115.63;5092569;28;20050;-78
2022/01/01 08:05:25;;;;;;;24.75;12.85;;;;;;;7.16;100.00;100126.44;5092663;28;20055;-78
2022/01/01 08:07:52;;;;;;;25.75;13.43;;;;;;;7.15;100.00;100124.72;5091329;28;20076;-78
2022/01/01 08:10:23;;;;;;;25.85;13.20;;;;;;;7.21;100.00;100134.97;5083752;28;20048;-78
2022/01/01 08:12:50;;;;;;;26.27;13.80;;;;;;;7.18;100.00;100116.34;5074641;28;20499;-78
2022/01/01 08:15:17;;;;;;;52.00;14.43;;;;;;;7.30;100.00;100130.59;5064088;28;20044;-78
2022/01/01 08:17:45;;;;;;;27.83;13.52;;;;;;;7.18;100.00;100116.34;5074484;28;20041;-78
2022/01/01 08:20:14;;;;;;;37.22;16.95;;;;;;;7.25;100.00;100112.94;5085250;28;20052;-78
2022/01/01 08:22:41;;;;;;;30.37;14.27;;;;;;;7.33;100.00;100124.91;5085843;28;20513;-78
2022/01/01 08:25:11;;;;;;;29.27;13.50;;;;;;;7.37;100.00;100127.19;5091491;28;20101;-78
2022/01/01 08:27:37;;;;;;;;;;;;;;;7.37;100.00;100138.00;5078826;28;20045;-78
2022/01/01 08:30:07;;;;;;;23.15;11.85;;;;;;;7.37;100.00;100118.22;5071472;28;19920;-78
2022/01/01 08:32:35;;;;;;;;;;;;;;;7.39;100.00;100129.75;5074885;28;20052;-78
2022/01/01 08:35:02;;;;;;;23.27;11.90;;;;;;;7.30;100.00;100130.59;5091463;28;19927;-78
2022/01/01 08:37:31;;;;;;;21.80;10.77;;;;;;;7.36;100.00;100130.91;5085844;28;20066;-78
2022/01/01 08:39:57;;;;;;;23.92;11.40;;;;;;;7.24;100.00;100113.94;5071775;28;20059;-79
2022/01/01 08:42:26;;;;;;;22.95;11.10;;;;;;;7.25;100.00;100120.19;5074916;28;20131;-79
2022/01/01 08:44:53;;;;;;;22.85;10.70;;;;;;;7.24;100.00;100122.06;5077848;28;20052;-79
2022/01/01 08:47:24;;;;;;;17.85;10.68;;;;;;;7.44;100.00;100149.97;5091106;28;20045;-78
2022/01/01 08:49:55;;;;;;;22.63;10.73;;;;;;;7.39;100.00;100138.75;5074797;28;20094;-79
2022/01/01 08:52:23;;;;;;;19.33;10.48;;;;;;;7.46;100.00;100155.25;5092173;28;20078;-78
2022/01/01 08:54:56;;;;;;;21.88;11.02;;;;;;;7.51;100.00;100162.94;5094911;28;20047;-78
2022/01/01 08:57:23;;;;;;;23.13;11.70;;;;;;;7.47;100.00;100145.28;5084227;28;20511;-78
2022/01/01 08:59:53;;;;;;;23.52;13.52;;;;;;;7.51;100.00;100139.47;5086465;28;20048;-79
2022/01/01 09:02:22;;;;;;;30.83;15.98;;;;;;;7.71;100.00;100169.25;5084605;28;20054;-82
2022/01/01 09:04:49;;;;;;;28.60;14.82;;;;;;;7.75;100.00;100155.28;5074474;28;20550;-79
2022/01/01 09:07:19;;;;;;;26.55;12.07;;;;;;;7.92;100.00;100159.13;5075177;28;20476;-79
2022/01/01 09:09:48;;;;;;;26.25;12.77;;;;;;;7.95;100.00;100158.00;5086983;28;20047;-79
2022/01/01 09:12:17;;;;;;;25.85;13.57;;;;;;;7.98;100.00;100145.00;5093189;28;20048;-79
2022/01/01 09:14:46;;;;;;;26.60;13.82;;;;;;;8.13;100.00;100169.78;5078239;28;20048;-79
2022/01/01 09:17:16;;;;;;;25.52;12.57;;;;;;;8.11;100.00;100154.66;5095873;28;20058;-79
2022/01/01 09:19:46;;;;;;;23.42;12.00;;;;;;;8.22;100.00;100145.53;5092843;28;20048;-79
2022/01/01 09:22:14;;;;;;;19.65;11.48;;;;;;;8.36;100.00;100155.91;5082013;28;20048;-79
2022/01/01 09:24:41;;;;;;;18.25;11.18;;;;;;;8.29;100.00;100152.91;5080689;28;20523;-79
2022/01/01 09:27:10;;;;;;;20.00;11.00;;;;;;;8.41;100.00;100158.19;5088314;28;20484;-79
2022/01/01 09:29:38;;;;;;;21.83;11.15;;;;;;;8.44;100.00;100171.47;5085337;28;20138;-79
2022/01/01 09:32:06;;;;;;;20.30;11.32;;;;;;;8.40;100.00;100165.47;5074076;28;20087;-79
2022/01/01 09:34:34;;;;;;;22.52;11.90;;;;;;;8.55;100.00;100170.44;5079555;28;20133;-79
2022/01/01 09:37:01;;;;;;;21.02;10.02;;;;;;;8.60;100.00;100181.72;5077649;28;20048;-79
2022/01/01 09:39:28;;;;;;;19.00;10.63;;;;;;;8.74;100.00;100180.38;5085910;28;20124;-79
2022/01/01 09:41:58;;;;;;;16.23;9.43;;;;;;;8.81;100.00;100197.75;5077294;28;20048;-79
2022/01/01 09:44:26;;;;;;;18.45;10.43;;;;;;;8.79;100.00;100189.78;5092159;28;20050;-79
2022/01/01 09:46:54;;;;;;;15.20;8.40;;;;;;;8.81;100.00;100170.66;5078968;28;20059;-79
2022/01/01 09:49:21;;;;;;;15.70;9.27;;;;;;;8.91;100.00;100189.56;5082423;28;20045;-79
2022/01/01 09:51:50;;;;;;;27.75;13.13;;;;;;;9.01;100.00;100177.69;5083100;28;20136;-79
2022/01/01 09:54:16;;;;;;;17.67;9.65;;;;;;;8.89;100.00;100172.59;5091494;28;20055;-79
2022/01/01 09:56:43;;;;;;;16.23;8.35;;;;;;;9.00;100.00;100162.44;5077450;28;20478;-79
2022/01/01 09:59:15;;;;;;;16.30;9.43;;;;;;;9.13;100.00;100181.03;5087867;28;20051;-79
2022/01/01 10:01:42;;;;;;;14.30;9.00;;;;;;;9.22;100.00;100182.00;5083451;28;20302;-79
2022/01/01 10:04:15;;;;;;;17.17;8.35;;;;;;;9.24;100.00;100162.88;5092780;28;20052;-79
2022/01/01 10:06:43;;;;;;;12.80;8.38;;;;;;;9.23;100.00;100162.03;5078956;28;20052;-79
2022/01/01 10:09:13;;;;;;;16.63;8.98;;;;;;;9.27;100.00;100149.84;5073189;28;20056;-79
2022/01/01 10:11:40;;;;;;;15.48;8.32;;;;;;;9.44;100.00;100156.31;5077104;28;20055;-79
2022/01/01 10:14:08;;;;;;;14.80;7.78;;;;;;;9.57;100.00;100164.94;5076434;28;20041;-79
2022/01/01 10:16:44;;;;;;;18.92;7.60;;;;;;;9.61;100.00;100143.75;5081530;28;20044;-79
2022/01/01 10:19:17;;;;;;;14.23;7.45;;;;;;;9.80;100.00;100148.19;5068146;28;20047;-79
2022/01/01 10:21:50;;;;;;;13.05;6.47;;;;;;;9.96;100.00;100149.34;5075992;28;20489;-79
2022/01/01 10:24:29;;;;;;;10.70;6.78;;;;;;;9.85;100.00;100154.00;5091966;28;20502;-79
2022/01/01 10:29:40;;;;;;;14.70;6.28;;;;;;;9.71;100.00;100144.53;5079347;28;20058;-79
2022/01/01 10:32:15;;;;;;;14.57;6.97;;;;;;;9.72;100.00;100156.25;5080202;28;20040;-79
2022/01/01 10:34:47;;;;;;;11.00;6.47;;;;;;;9.84;100.00;100155.00;5087135;28;20066;-83
2022/01/01 10:37:15;;;;;;;14.15;6.65;;;;;;;9.78;100.00;100152.91;5085002;28;20048;-85
2022/01/01 10:39:48;;;;;;;11.10;6.40;;;;;;;9.81;100.00;100140.88;5084661;28;20044;-78
2022/01/01 10:42:15;;;;;;;11.65;6.72;;;;;;;9.85;100.00;100143.13;5072927;28;20127;-78
2022/01/01 10:44:47;;;;;;;12.38;7.03;;;;;;;9.76;100.00;100133.22;5079962;28;20059;-78
2022/01/01 10:47:20;;;;;;;10.60;6.25;;;;;;;9.93;100.00;100136.91;5084559;28;20059;-78
2022/01/01 10:50:13;;;;;;;11.55;7.50;;;;;;;10.09;100.00;100133.47;5070852;28;20044;-78
2022/01/01 10:52:44;;;;;;;11.73;6.70;;;;;;;10.09;100.00;100123.47;5078475;28;20681;-78
2022/01/01 10:55:12;;;;;;;11.68;5.93;;;;;;;9.99;100.00;100111.81;5073741;28;20052;-78
2022/01/01 10:57:41;;;;;;;16.55;6.90;;;;;;;10.09;100.00;100125.34;5078471;28;20600;-78
2022/01/01 11:00:16;;;;;;;11.02;6.30;;;;;;;10.19;100.00;100117.06;5072494;28;20083;-78
2022/01/01 11:02:45;;;;;;;17.52;7.15;;;;;;;10.17;100.00;100113.66;5088257;28;20392;-78
2022/01/01 11:05:13;;;;;;;14.05;6.85;;;;;;;10.20;100.00;100107.91;5081509;28;20040;-78
2022/01/01 11:07:50;;;;;;;14.82;7.13;;;;;;;10.31;100.00;100118.50;5088995;28;20060;-78
2022/01/01 11:10:18;;;;;;;12.45;6.95;;;;;;;10.22;100.00;100100.44;5083346;28;20098;-78
2022/01/01 11:12:45;;;;;;;11.05;6.43;;;;;;;10.25;100.00;100097.41;5087187;28;20082;-78
2022/01/01 11:15:12;;;;;;;13.57;6.38;;;;;;;10.27;100.00;100093.53;5085644;28;20051;-78
2022/01/01 11:17:39;;;;;;;9.55;6.13;;;;;;;10.30;100.00;100094.19;5072052;28;20048;-78
2022/01/01 11:20:07;;;;;;;12.88;7.07;;;;;;;10.49;100.00;100098.59;5085532;28;20044;-78
2022/01/01 11:22:37;;;;;;;12.77;7.57;;;;;;;10.51;100.00;100086.56;5085886;28;20059;-78
2022/01/01 11:25:04;;;;;;;13.25;6.82;;;;;;;10.65;100.00;100084.25;5090510;28;20492;-78